createdAt,value
2019-02-06T05:00:19.533Z,18.80
2019-02-06T05:02:42.041Z,21.17
2019-02-06T05:05:04.843Z,21.60
2019-02-06T05:07:27.337Z,21.77
2019-02-06T05:09:49.849Z,22.37
2019-02-06T05:12:12.356Z,22.30
2019-02-06T05:14:34.854Z,21.10
2019-02-06T06:01:11.438Z,21.73
2019-02-06T06:03:46.504Z,20.80
2019-02-06T06:06:21.611Z,20.93
2019-02-06T06:08:44.031Z,22.00
2019-02-06T06:11:06.541Z,20.40
2019-02-06T06:13:29.048Z,20.50
2019-02-06T07:00:16.951Z,18.30
2019-02-06T07:02:39.658Z,18.40
2019-02-06T07:05:02.086Z,19.13
2019-02-06T07:07:24.519Z,18.63
2019-02-06T07:09:47.010Z,17.77
2019-02-06T07:12:09.413Z,17.77
2019-02-06T07:14:31.932Z,17.87
2019-02-06T08:02:26.406Z,19.27
2019-02-06T08:04:48.935Z,19.30
2019-02-06T08:07:11.458Z,18.83
2019-02-06T08:09:33.962Z,20.33
2019-02-06T08:11:56.467Z,20.20
2019-02-06T08:14:18.878Z,20.90
2019-02-06T09:02:30.514Z,20.87
2019-02-06T09:04:55.821Z,21.67
2019-02-06T09:07:17.258Z,19.50
2019-02-06T09:09:39.811Z,20.23
2019-02-06T09:12:02.317Z,20.90
2019-02-06T09:14:24.810Z,21.40
2019-02-06T10:00:57.640Z,23.13
2019-02-06T10:03:20.353Z,23.53
2019-02-06T10:05:42.766Z,24.00
2019-02-06T10:08:05.497Z,25.00
2019-02-06T10:10:47.490Z,23.60
2019-02-06T10:13:22.906Z,24.20
2019-02-06T11:01:21.331Z,22.40
2019-02-06T11:03:43.869Z,23.38
2019-02-06T11:06:06.366Z,23.10
2019-02-06T11:08:28.796Z,22.25
2019-02-06T11:10:51.817Z,22.27
2019-02-06T11:13:14.214Z,22.17
2019-02-06T12:02:24.082Z,20.95
2019-02-06T12:04:46.507Z,20.32
2019-02-06T12:07:09.044Z,20.40
2019-02-06T12:09:31.857Z,20.43
2019-02-06T12:11:54.368Z,19.73
2019-02-06T12:14:16.988Z,19.90
2019-02-06T13:01:25.231Z,18.73
2019-02-06T13:04:00.347Z,19.33
2019-02-06T13:06:35.271Z,18.83
2019-02-06T13:09:11.255Z,19.60
2019-02-06T13:11:46.342Z,19.30
2019-02-06T13:14:21.340Z,20.10
2019-02-06T14:00:29.007Z,21.67
2019-02-06T14:02:51.519Z,22.47
2019-02-06T14:05:15.902Z,21.83
2019-02-06T14:07:38.774Z,23.50
2019-02-06T14:10:01.484Z,23.90
2019-02-06T14:12:24.329Z,23.77
2019-02-06T14:14:46.823Z,23.43
2019-02-06T15:01:19.046Z,26.17
2019-02-06T15:04:04.319Z,26.80
2019-02-06T15:06:59.904Z,26.13
2019-02-06T15:10:13.230Z,26.73
2019-02-06T15:12:48.642Z,26.17
2019-02-06T16:03:25.417Z,30.30
2019-02-06T16:06:23.486Z,29.03
2019-02-06T16:09:17.786Z,30.53
2019-02-06T16:12:36.986Z,30.47
2019-02-06T17:02:18.586Z,27.07
2019-02-06T17:05:30.978Z,27.83
2019-02-06T17:08:25.726Z,27.33
2019-02-06T17:11:00.567Z,28.00
2019-02-06T17:13:36.775Z,27.47
2019-02-06T18:17:35.578Z,24.00
2019-02-06T18:19:58.103Z,23.73
2019-02-06T18:22:22.547Z,23.60
2019-02-06T18:24:44.955Z,26.73
2019-02-06T18:27:08.879Z,24.37
2019-02-06T18:29:31.397Z,24.50
2019-02-06T19:01:26.547Z,22.37
2019-02-06T19:03:49.079Z,21.83
2019-02-06T19:06:11.761Z,21.47
2019-02-06T19:08:39.904Z,21.97
2019-02-06T19:11:01.442Z,23.27
2019-02-06T19:13:24.077Z,24.13
2019-02-06T20:00:17.266Z,21.43
2019-02-06T20:02:40.034Z,20.93
2019-02-06T20:05:02.890Z,21.73
2019-02-06T20:07:25.513Z,21.63
2019-02-06T20:10:00.493Z,21.33
2019-02-06T20:12:35.781Z,20.47
2019-02-06T21:00:16.028Z,19.03
2019-02-06T21:02:51.714Z,19.73
2019-02-06T21:05:14.370Z,20.47
2019-02-06T21:07:56.450Z,19.93
2019-02-06T21:10:31.195Z,20.87
2019-02-06T21:13:06.229Z,20.57
